createdAt,value
2023-04-01T00:00:09.809Z,23.6
2023-04-01T00:06:01.995Z,23.6
2023-04-01T00:11:59.167Z,23.6
2023-04-01T00:17:59.575Z,23.6
2023-04-01T00:23:50.956Z,23.5
2023-04-01T00:29:42.871Z,23.6
2023-04-01T00:35:34.497Z,23.5
2023-04-01T00:40:55.255Z,23.5
2023-04-01T00:46:31.046Z,23.5
2023-04-01T00:52:07.290Z,23.5
2023-04-01T00:57:43.215Z,23.4
2023-04-01T01:03:19.831Z,23.5
2023-04-01T01:08:58.759Z,23.5
2023-04-01T01:14:35.325Z,23.4
2023-04-01T01:20:19.157Z,23.4
2023-04-01T01:26:15.780Z,23.4
2023-04-01T01:31:51.433Z,23.4
2023-04-01T01:37:43.385Z,23.4
2023-04-01T01:43:34.034Z,23.4
2023-04-01T01:49:26.077Z,23.4
2023-04-01T01:55:17.815Z,23.4
2023-04-01T02:01:09.762Z,23.4
2023-04-01T02:07:00.758Z,23.4
2023-04-01T02:12:52.212Z,23.4
2023-04-01T02:18:28.934Z,23.3
2023-04-01T02:23:49.397Z,23.3
2023-04-01T02:29:40.720Z,23.3
2023-04-01T02:35:32.657Z,23.3
2023-04-01T02:41:24.750Z,23.3
2023-04-01T02:47:16.678Z,23.3
2023-04-01T02:58:30.624Z,23.3
2023-04-01T03:04:23.840Z,23.2
2023-04-01T03:09:44.286Z,23.1
2023-04-01T03:15:43.681Z,23.1
2023-04-01T03:21:35.234Z,23.1
2023-04-01T03:27:29.304Z,23.1
2023-04-01T03:33:21.094Z,23
2023-04-01T03:39:12.498Z,23
2023-04-01T03:44:48.308Z,22.9
2023-04-01T03:50:24.344Z,22.9
2023-04-01T03:56:00.215Z,22.9
2023-04-01T04:01:52.107Z,22.9
2023-04-01T04:07:44.683Z,22.9
2023-04-01T04:13:35.860Z,22.8
2023-04-01T04:19:28.121Z,22.8
2023-04-01T04:25:19.614Z,22.8
2023-04-01T04:31:10.795Z,22.8
2023-04-01T04:37:03.091Z,22.8
2023-04-01T04:42:54.516Z,22.8
2023-04-01T04:48:31.517Z,22.8
2023-04-01T04:54:24.425Z,22.8
2023-04-01T05:00:15.394Z,22.8
2023-04-01T05:06:07.970Z,22.8
2023-04-01T05:12:02.732Z,22.7
2023-04-01T05:17:53.425Z,22.7
2023-04-01T05:23:29.029Z,22.7
2023-04-01T05:29:22.178Z,22.6
2023-04-01T05:35:13.652Z,22.6
2023-04-01T05:40:49.745Z,22.6
2023-04-01T05:46:25.397Z,22.6
2023-04-01T05:52:16.947Z,22.6
2023-04-01T05:58:10.616Z,22.6
2023-04-01T06:04:12.652Z,28.5
2023-04-01T06:10:03.959Z,27.4
2023-04-01T06:15:55.573Z,29.4
2023-04-01T06:21:16.509Z,28.9
2023-04-01T06:26:53.511Z,28.4
2023-04-01T06:32:46.145Z,28.1
2023-04-01T06:38:23.186Z,27.8
2023-04-01T06:43:59.742Z,27.7
2023-04-01T06:49:52.033Z,27.3
2023-04-01T06:55:43.448Z,27.2
2023-04-01T07:01:35.879Z,27.1
2023-04-01T07:07:12.685Z,27
2023-04-01T07:13:04.747Z,27.3
2023-04-01T07:18:43.053Z,27.7
2023-04-01T07:24:19.704Z,27.6
2023-04-01T07:30:12.229Z,27.5
2023-04-01T07:36:05.289Z,27.6
2023-04-01T07:41:57.467Z,27.7
2023-04-01T07:47:49.265Z,27.5
2023-04-01T07:53:40.730Z,27.4
2023-04-01T07:59:17.494Z,27.1
2023-04-01T08:04:39.918Z,26.9
2023-04-01T08:10:32.191Z,27
2023-04-01T08:16:24.847Z,27
2023-04-01T08:22:16.109Z,27.1
2023-04-01T08:28:16.903Z,27.6
2023-04-01T08:34:08.999Z,28.4
2023-04-01T08:40:02.300Z,29.7
2023-04-01T08:45:53.599Z,32.2
2023-04-01T08:51:45.247Z,39.6
2023-04-01T08:57:37.023Z,42.3
2023-04-01T09:03:31.205Z,41
2023-04-01T09:09:24.576Z,36.6
2023-04-01T09:15:16.908Z,34.6
2023-04-01T09:21:09.462Z,33.6
2023-04-01T09:27:01.225Z,33.1
2023-04-01T09:32:53.548Z,32.8
2023-04-01T09:38:45.716Z,32.6
2023-04-01T09:44:37.384Z,32.6
2023-04-01T09:50:29.258Z,32.8
2023-04-01T09:56:21.226Z,33.2
2023-04-01T10:02:13.962Z,33.6
2023-04-01T10:08:06.472Z,33.7
2023-04-01T10:13:58.158Z,33.7
2023-04-01T10:19:50.346Z,33.6
2023-04-01T10:25:42.316Z,33.3
2023-04-01T10:31:33.793Z,32.8
2023-04-01T10:37:25.272Z,32.2
2023-04-01T10:43:16.251Z,31.7
2023-04-01T10:49:07.515Z,31.4
2023-04-01T10:55:01.131Z,31.4
2023-04-01T11:00:52.332Z,31.2
2023-04-01T11:06:58.977Z,30.9
2023-04-01T11:12:57.348Z,30.9
2023-04-01T11:18:33.292Z,30.3
2023-04-01T11:24:37.976Z,29.8
2023-04-01T11:30:36.253Z,28.8
2023-04-01T11:36:27.156Z,28.2
2023-04-01T11:42:17.298Z,27.5
2023-04-01T11:48:04.282Z,26.8
2023-04-01T11:53:54.989Z,26.3
2023-04-01T11:59:46.215Z,25.9
2023-04-01T12:05:39.417Z,25.7
2023-04-01T12:11:30.354Z,25.5
2023-04-01T12:17:29.493Z,25.4
2023-04-01T12:23:23.156Z,25.2
2023-04-01T12:29:14.544Z,25.1
2023-04-01T12:35:06.612Z,24.9
2023-04-01T12:40:58.199Z,24.8
2023-04-01T12:46:49.713Z,24.7
2023-04-01T12:52:40.810Z,24.6
2023-04-01T12:58:32.881Z,24.6
2023-04-01T13:04:24.673Z,24.4
2023-04-01T13:10:20.734Z,24.4
2023-04-01T13:16:24.048Z,24.4
2023-04-01T13:22:29.441Z,24.4
2023-04-01T13:28:39.121Z,24.3
2023-04-01T13:34:24.943Z,24.3
2023-04-01T13:40:18.149Z,24.2
2023-04-01T13:46:20.951Z,24.1
2023-04-01T13:52:13.028Z,29.6
2023-04-01T13:58:04.347Z,33.4
2023-04-01T14:03:57.489Z,34.9
2023-04-01T14:09:53.666Z,35
2023-04-01T14:15:47.066Z,35.1
2023-04-01T14:21:42.245Z,35.2
2023-04-01T14:27:18.496Z,33.4
2023-04-01T14:33:09.806Z,34.1
2023-04-01T14:39:02.491Z,34.4
2023-04-01T14:45:04.177Z,34.3
2023-04-01T14:50:55.666Z,34.1
2023-04-01T14:56:48.147Z,33.5
2023-04-01T15:02:40.134Z,32.6
2023-04-01T15:08:32.500Z,32
2023-04-01T15:14:24.025Z,31.3
2023-04-01T15:20:15.130Z,30.8
2023-04-01T15:25:52.020Z,30.3
2023-04-01T15:31:43.457Z,29.8
2023-04-01T15:37:35.593Z,29.6
2023-04-01T15:43:29.658Z,29.2
2023-04-01T15:49:21.243Z,28.6
2023-04-01T15:55:13.688Z,27.9
2023-04-01T16:01:04.892Z,27.1
2023-04-01T16:06:58.478Z,26.5
2023-04-01T16:12:49.254Z,26.2
2023-04-01T16:18:42.083Z,25.9
2023-04-01T16:24:33.511Z,25.7
2023-04-01T16:30:25.979Z,25.5
2023-04-01T16:36:18.229Z,25.4
2023-04-01T16:42:09.946Z,25.2
2023-04-01T16:48:01.388Z,25.1
2023-04-01T16:53:55.502Z,25
2023-04-01T16:59:32.122Z,24.9
2023-04-01T17:05:24.217Z,24.9
2023-04-01T17:11:16.743Z,24.8
2023-04-01T17:17:08.390Z,24.7
2023-04-01T17:22:45.625Z,24.7
2023-04-01T17:28:40.773Z,24.6
2023-04-01T17:34:17.109Z,24.6
2023-04-01T17:40:08.464Z,24.6
2023-04-01T17:45:59.998Z,24.5
2023-04-01T17:51:51.659Z,24.4
2023-04-01T17:57:43.442Z,24.4
2023-04-01T18:03:52.957Z,24.4
2023-04-01T18:09:44.754Z,24.3
2023-04-01T18:15:21.350Z,24.3
2023-04-01T18:21:13.345Z,24.3
2023-04-01T18:27:09.373Z,24.2
2023-04-01T18:32:45.910Z,24.1
2023-04-01T18:38:37.673Z,24.1
2023-04-01T18:44:29.484Z,24.1
2023-04-01T18:50:07.358Z,24
2023-04-01T18:55:59.260Z,23.9
2023-04-01T19:01:38.573Z,23.9
2023-04-01T19:07:14.689Z,23.9
2023-04-01T19:13:07.016Z,23.8
2023-04-01T19:18:59.165Z,23.8
2023-04-01T19:24:53.355Z,23.7
2023-04-01T19:30:29.759Z,23.6
2023-04-01T19:36:21.368Z,23.6
2023-04-01T19:41:58.642Z,23.6
2023-04-01T19:47:35.294Z,23.5
2023-04-01T19:52:56.584Z,23.5
2023-04-01T19:58:48.228Z,23.4
2023-04-01T20:04:47.809Z,23.4
2023-04-01T20:10:39.475Z,23.4
2023-04-01T20:16:32.128Z,23.4
2023-04-01T20:22:24.252Z,23.4
2023-04-01T20:28:15.767Z,23.3
2023-04-01T20:34:08.073Z,23.3
2023-04-01T20:40:00.320Z,23.3
2023-04-01T20:45:52.502Z,23.3
2023-04-01T20:51:28.696Z,23.3
2023-04-01T20:57:04.716Z,23.3
2023-04-01T21:02:56.788Z,23.2
2023-04-01T21:08:48.601Z,23.2
2023-04-01T21:14:41.052Z,23.2
2023-04-01T21:20:33.469Z,23.1
2023-04-01T21:26:25.337Z,23.1
2023-04-01T21:32:19.327Z,23.1
2023-04-01T21:38:13.241Z,23.1
2023-04-01T21:44:04.837Z,23.1
2023-04-01T21:49:56.191Z,23.1
2023-04-01T21:55:47.732Z,23.1
2023-04-01T22:01:39.696Z,23.1
2023-04-01T22:07:39.738Z,23.1
2023-04-01T22:13:31.327Z,23
2023-04-01T22:19:25.558Z,23.1
2023-04-01T22:25:17.579Z,23
2023-04-01T22:31:09.180Z,23
2023-04-01T22:36:45.694Z,23
2023-04-01T22:42:37.639Z,23
2023-04-01T22:48:29.056Z,22.9
2023-04-01T22:54:19.719Z,22.9
2023-04-01T23:00:22.255Z,22.9
2023-04-01T23:05:59.095Z,22.9
2023-04-01T23:11:49.951Z,22.9
2023-04-01T23:17:41.446Z,22.9
2023-04-01T23:23:32.696Z,22.9
2023-04-01T23:29:24.082Z,22.9
2023-04-01T23:35:15.429Z,22.9
2023-04-01T23:41:06.863Z,22.9
2023-04-01T23:46:58.724Z,22.9
2023-04-01T23:52:50.410Z,22.9
2023-04-01T23:58:41.799Z,22.9
